sensor_id;sensor_type;location;lat;lon;timestamp;P1;durP1;ratioP1;P2;durP2;ratioP2
70122;SDS011;57489;37.404;24.920;2023-03-23T00:01:47;10.20;;;5.23;;
70122;SDS011;57489;37.404;24.920;2023-03-23T00:06:48;11.85;;;6.00;;
70122;SDS011;57489;37.404;24.920;2023-03-23T00:11:49;10.27;;;4.90;;
70122;SDS011;57489;37.404;24.920;2023-03-23T00:16:50;9.77;;;5.93;;
70122;SDS011;57489;37.404;24.920;2023-03-23T00:21:50;9.87;;;5.30;;
70122;SDS011;57489;37.404;24.920;2023-03-23T00:26:51;10.00;;;5.10;;
70122;SDS011;57489;37.404;24.920;2023-03-23T00:31:51;9.77;;;5.63;;
70122;SDS011;57489;37.404;24.920;2023-03-23T00:36:52;11.17;;;5.57;;
70122;SDS011;57489;37.404;24.920;2023-03-23T00:41:54;11.25;;;6.13;;
70122;SDS011;57489;37.404;24.920;2023-03-23T00:46:55;10.77;;;5.63;;
70122;SDS011;57489;37.404;24.920;2023-03-23T00:51:56;10.70;;;5.77;;
70122;SDS011;57489;37.404;24.920;2023-03-23T00:56:57;10.38;;;5.55;;
70122;SDS011;57489;37.404;24.920;2023-03-23T01:01:58;11.57;;;5.43;;
70122;SDS011;57489;37.404;24.920;2023-03-23T01:06:58;11.00;;;5.87;;
70122;SDS011;57489;37.404;24.920;2023-03-23T01:11:59;15.43;;;6.47;;
70122;SDS011;57489;37.404;24.920;2023-03-23T01:16:59;10.37;;;5.77;;
70122;SDS011;57489;37.404;24.920;2023-03-23T01:22:00;10.43;;;5.73;;
70122;SDS011;57489;37.404;24.920;2023-03-23T01:27:00;12.13;;;6.83;;
70122;SDS011;57489;37.404;24.920;2023-03-23T01:32:01;11.07;;;5.97;;
70122;SDS011;57489;37.404;24.920;2023-03-23T01:37:02;13.60;;;6.40;;
70122;SDS011;57489;37.404;24.920;2023-03-23T01:42:03;14.30;;;6.73;;
70122;SDS011;57489;37.404;24.920;2023-03-23T01:47:04;11.07;;;5.97;;
70122;SDS011;57489;37.404;24.920;2023-03-23T01:52:05;12.93;;;6.43;;
70122;SDS011;57489;37.404;24.920;2023-03-23T01:57:11;11.90;;;6.47;;
70122;SDS011;57489;37.404;24.920;2023-03-23T02:02:14;11.40;;;6.10;;
70122;SDS011;57489;37.404;24.920;2023-03-23T02:07:15;11.48;;;6.65;;
70122;SDS011;57489;37.404;24.920;2023-03-23T02:12:20;11.10;;;5.93;;
70122;SDS011;57489;37.404;24.920;2023-03-23T02:43:41;9.17;;;4.80;;
70122;SDS011;57489;37.404;24.920;2023-03-23T02:48:44;12.50;;;7.10;;
70122;SDS011;57489;37.404;24.920;2023-03-23T02:53:46;11.43;;;6.17;;
70122;SDS011;57489;37.404;24.920;2023-03-23T02:58:50;10.97;;;5.53;;
70122;SDS011;57489;37.404;24.920;2023-03-23T03:03:51;11.33;;;5.73;;
70122;SDS011;57489;37.404;24.920;2023-03-23T03:09:02;10.52;;;5.68;;
70122;SDS011;57489;37.404;24.920;2023-03-23T03:14:19;11.60;;;5.95;;
70122;SDS011;57489;37.404;24.920;2023-03-23T03:19:25;11.13;;;6.40;;
70122;SDS011;57489;37.404;24.920;2023-03-23T03:24:29;10.95;;;6.00;;
70122;SDS011;57489;37.404;24.920;2023-03-23T03:29:32;11.13;;;6.50;;
70122;SDS011;57489;37.404;24.920;2023-03-23T03:34:35;11.43;;;5.83;;
70122;SDS011;57489;37.404;24.920;2023-03-23T03:39:36;11.67;;;7.03;;
70122;SDS011;57489;37.404;24.920;2023-03-23T03:44:36;12.23;;;5.90;;
70122;SDS011;57489;37.404;24.920;2023-03-23T03:49:36;13.38;;;6.90;;
70122;SDS011;57489;37.404;24.920;2023-03-23T03:54:37;11.83;;;5.53;;
70122;SDS011;57489;37.404;24.920;2023-03-23T03:59:37;12.87;;;6.17;;
70122;SDS011;57489;37.404;24.920;2023-03-23T04:04:38;11.87;;;6.47;;
70122;SDS011;57489;37.404;24.920;2023-03-23T04:09:42;14.83;;;6.63;;
70122;SDS011;57489;37.404;24.920;2023-03-23T04:14:44;11.85;;;6.22;;
70122;SDS011;57489;37.404;24.920;2023-03-23T04:19:44;12.67;;;6.53;;
70122;SDS011;57489;37.404;24.920;2023-03-23T04:24:45;14.50;;;7.27;;
70122;SDS011;57489;37.404;24.920;2023-03-23T04:29:45;13.97;;;6.97;;
70122;SDS011;57489;37.404;24.920;2023-03-23T04:34:46;12.73;;;7.07;;
70122;SDS011;57489;37.404;24.920;2023-03-23T04:39:46;13.15;;;7.63;;
70122;SDS011;57489;37.404;24.920;2023-03-23T04:44:46;12.60;;;7.27;;
70122;SDS011;57489;37.404;24.920;2023-03-23T04:49:47;12.57;;;6.50;;
70122;SDS011;57489;37.404;24.920;2023-03-23T04:54:47;13.13;;;6.97;;
70122;SDS011;57489;37.404;24.920;2023-03-23T04:59:48;12.83;;;7.00;;
70122;SDS011;57489;37.404;24.920;2023-03-23T05:04:48;13.20;;;7.40;;
70122;SDS011;57489;37.404;24.920;2023-03-23T05:09:49;10.40;;;6.60;;
70122;SDS011;57489;37.404;24.920;2023-03-23T05:14:49;14.75;;;7.18;;
70122;SDS011;57489;37.404;24.920;2023-03-23T05:19:50;12.30;;;6.67;;
70122;SDS011;57489;37.404;24.920;2023-03-23T05:24:51;14.33;;;7.37;;
70122;SDS011;57489;37.404;24.920;2023-03-23T05:29:52;11.53;;;6.67;;
70122;SDS011;57489;37.404;24.920;2023-03-23T05:34:52;11.87;;;6.30;;
70122;SDS011;57489;37.404;24.920;2023-03-23T05:39:52;15.60;;;6.30;;
70122;SDS011;57489;37.404;24.920;2023-03-23T05:44:53;19.47;;;8.40;;
70122;SDS011;57489;37.404;24.920;2023-03-23T05:49:53;20.43;;;8.23;;
70122;SDS011;57489;37.404;24.920;2023-03-23T05:54:54;29.43;;;8.87;;
70122;SDS011;57489;37.404;24.920;2023-03-23T05:59:54;32.33;;;10.30;;
70122;SDS011;57489;37.404;24.920;2023-03-23T06:04:55;33.03;;;10.23;;
70122;SDS011;57489;37.404;24.920;2023-03-23T06:09:55;29.83;;;10.03;;
70122;SDS011;57489;37.404;24.920;2023-03-23T06:14:56;27.53;;;9.97;;
70122;SDS011;57489;37.404;24.920;2023-03-23T06:19:56;27.83;;;9.30;;
70122;SDS011;57489;37.404;24.920;2023-03-23T06:24:56;34.43;;;10.67;;
70122;SDS011;57489;37.404;24.920;2023-03-23T06:29:57;30.17;;;9.37;;
70122;SDS011;57489;37.404;24.920;2023-03-23T06:34:58;27.77;;;8.87;;
70122;SDS011;57489;37.404;24.920;2023-03-23T06:39:58;36.73;;;9.87;;
70122;SDS011;57489;37.404;24.920;2023-03-23T06:44:59;28.20;;;9.40;;
70122;SDS011;57489;37.404;24.920;2023-03-23T06:50:00;26.20;;;10.20;;
70122;SDS011;57489;37.404;24.920;2023-03-23T06:55:00;30.63;;;9.47;;
70122;SDS011;57489;37.404;24.920;2023-03-23T07:00:00;30.27;;;9.03;;
70122;SDS011;57489;37.404;24.920;2023-03-23T07:05:01;23.57;;;8.30;;
70122;SDS011;57489;37.404;24.920;2023-03-23T07:10:02;21.50;;;7.03;;
70122;SDS011;57489;37.404;24.920;2023-03-23T07:15:04;25.05;;;7.25;;
70122;SDS011;57489;37.404;24.920;2023-03-23T07:20:05;22.48;;;7.13;;
70122;SDS011;57489;37.404;24.920;2023-03-23T07:25:07;18.17;;;6.37;;
70122;SDS011;57489;37.404;24.920;2023-03-23T07:30:07;12.68;;;5.45;;
70122;SDS011;57489;37.404;24.920;2023-03-23T07:35:09;13.90;;;5.87;;
70122;SDS011;57489;37.404;24.920;2023-03-23T07:40:09;13.80;;;4.75;;
70122;SDS011;57489;37.404;24.920;2023-03-23T07:45:11;14.97;;;5.47;;
70122;SDS011;57489;37.404;24.920;2023-03-23T07:50:12;15.27;;;5.13;;
70122;SDS011;57489;37.404;24.920;2023-03-23T07:55:13;14.60;;;5.63;;
70122;SDS011;57489;37.404;24.920;2023-03-23T08:00:15;8.95;;;4.18;;
70122;SDS011;57489;37.404;24.920;2023-03-23T08:05:16;9.47;;;4.43;;
70122;SDS011;57489;37.404;24.920;2023-03-23T08:10:17;10.40;;;4.65;;
70122;SDS011;57489;37.404;24.920;2023-03-23T08:15:18;11.60;;;4.37;;
70122;SDS011;57489;37.404;24.920;2023-03-23T08:20:19;12.70;;;4.20;;
70122;SDS011;57489;37.404;24.920;2023-03-23T08:25:20;14.47;;;5.43;;
70122;SDS011;57489;37.404;24.920;2023-03-23T08:30:21;14.48;;;4.32;;
70122;SDS011;57489;37.404;24.920;2023-03-23T08:35:23;10.53;;;4.83;;
70122;SDS011;57489;37.404;24.920;2023-03-23T08:40:24;11.52;;;4.60;;
70122;SDS011;57489;37.404;24.920;2023-03-23T08:45:25;9.88;;;4.53;;
70122;SDS011;57489;37.404;24.920;2023-03-23T08:50:26;10.53;;;4.50;;
70122;SDS011;57489;37.404;24.920;2023-03-23T08:55:28;13.20;;;5.38;;
70122;SDS011;57489;37.404;24.920;2023-03-23T09:00:30;10.50;;;4.77;;
70122;SDS011;57489;37.404;24.920;2023-03-23T09:05:30;10.05;;;4.60;;
70122;SDS011;57489;37.404;24.920;2023-03-23T09:10:31;10.57;;;5.07;;
70122;SDS011;57489;37.404;24.920;2023-03-23T09:15:31;9.50;;;4.70;;
70122;SDS011;57489;37.404;24.920;2023-03-23T09:20:32;11.32;;;4.97;;
70122;SDS011;57489;37.404;24.920;2023-03-23T09:25:33;11.10;;;4.60;;
70122;SDS011;57489;37.404;24.920;2023-03-23T09:30:34;11.73;;;4.50;;
70122;SDS011;57489;37.404;24.920;2023-03-23T09:35:35;14.00;;;5.68;;
70122;SDS011;57489;37.404;24.920;2023-03-23T09:41:00;10.53;;;4.47;;
70122;SDS011;57489;37.404;24.920;2023-03-23T09:51:42;11.00;;;5.00;;
70122;SDS011;57489;37.404;24.920;2023-03-23T09:56:57;10.60;;;5.17;;
70122;SDS011;57489;37.404;24.920;2023-03-23T10:02:09;10.10;;;5.25;;
70122;SDS011;57489;37.404;24.920;2023-03-23T10:07:20;11.10;;;5.50;;
70122;SDS011;57489;37.404;24.920;2023-03-23T10:17:45;8.93;;;5.20;;
70122;SDS011;57489;37.404;24.920;2023-03-23T10:28:40;11.07;;;5.13;;
70122;SDS011;57489;37.404;24.920;2023-03-23T10:33:47;11.13;;;5.13;;
70122;SDS011;57489;37.404;24.920;2023-03-23T10:38:49;11.70;;;5.45;;
70122;SDS011;57489;37.404;24.920;2023-03-23T10:43:52;11.93;;;5.07;;
70122;SDS011;57489;37.404;24.920;2023-03-23T10:48:52;10.47;;;5.10;;
70122;SDS011;57489;37.404;24.920;2023-03-23T10:53:58;9.40;;;4.87;;
70122;SDS011;57489;37.404;24.920;2023-03-23T10:59:10;10.57;;;5.35;;
70122;SDS011;57489;37.404;24.920;2023-03-23T11:04:16;10.15;;;5.03;;
70122;SDS011;57489;37.404;24.920;2023-03-23T11:09:19;10.77;;;4.90;;
70122;SDS011;57489;37.404;24.920;2023-03-23T11:14:25;11.82;;;5.75;;
70122;SDS011;57489;37.404;24.920;2023-03-23T11:19:35;10.77;;;5.38;;
70122;SDS011;57489;37.404;24.920;2023-03-23T11:24:40;9.53;;;4.83;;
70122;SDS011;57489;37.404;24.920;2023-03-23T11:29:47;10.73;;;4.95;;
70122;SDS011;57489;37.404;24.920;2023-03-23T11:34:53;8.68;;;4.53;;
70122;SDS011;57489;37.404;24.920;2023-03-23T11:40:00;9.80;;;4.80;;
70122;SDS011;57489;37.404;24.920;2023-03-23T11:45:17;10.93;;;5.28;;
70122;SDS011;57489;37.404;24.920;2023-03-23T11:50:47;9.50;;;4.53;;
70122;SDS011;57489;37.404;24.920;2023-03-23T12:12:21;11.90;;;5.07;;
70122;SDS011;57489;37.404;24.920;2023-03-23T12:43:51;14.10;;;5.83;;
70122;SDS011;57489;37.404;24.920;2023-03-23T12:49:01;13.70;;;5.50;;
70122;SDS011;57489;37.404;24.920;2023-03-23T12:54:18;10.57;;;5.17;;
70122;SDS011;57489;37.404;24.920;2023-03-23T12:59:32;20.80;;;6.72;;
70122;SDS011;57489;37.404;24.920;2023-03-23T13:04:37;15.27;;;5.93;;
70122;SDS011;57489;37.404;24.920;2023-03-23T13:10:02;13.83;;;6.37;;
70122;SDS011;57489;37.404;24.920;2023-03-23T13:20:38;15.10;;;5.97;;
70122;SDS011;57489;37.404;24.920;2023-03-23T13:25:52;12.83;;;5.47;;
70122;SDS011;57489;37.404;24.920;2023-03-23T13:36:02;10.75;;;5.18;;
70122;SDS011;57489;37.404;24.920;2023-03-23T13:41:08;11.00;;;5.50;;
70122;SDS011;57489;37.404;24.920;2023-03-23T13:46:13;11.63;;;5.93;;
70122;SDS011;57489;37.404;24.920;2023-03-23T13:51:31;15.65;;;4.90;;
70122;SDS011;57489;37.404;24.920;2023-03-23T13:56:36;9.67;;;4.67;;
70122;SDS011;57489;37.404;24.920;2023-03-23T14:01:41;11.93;;;4.93;;
70122;SDS011;57489;37.404;24.920;2023-03-23T14:06:41;13.05;;;4.88;;
70122;SDS011;57489;37.404;24.920;2023-03-23T14:11:47;10.83;;;4.77;;
70122;SDS011;57489;37.404;24.920;2023-03-23T14:17:04;10.88;;;4.68;;
70122;SDS011;57489;37.404;24.920;2023-03-23T14:22:19;13.65;;;4.70;;
70122;SDS011;57489;37.404;24.920;2023-03-23T14:27:23;13.83;;;4.30;;
70122;SDS011;57489;37.404;24.920;2023-03-23T14:32:24;12.30;;;5.00;;
70122;SDS011;57489;37.404;24.920;2023-03-23T14:37:24;11.93;;;4.97;;
70122;SDS011;57489;37.404;24.920;2023-03-23T14:42:29;18.67;;;4.67;;
70122;SDS011;57489;37.404;24.920;2023-03-23T14:47:35;11.13;;;4.13;;
70122;SDS011;57489;37.404;24.920;2023-03-23T14:52:40;13.95;;;4.32;;
70122;SDS011;57489;37.404;24.920;2023-03-23T14:57:41;14.50;;;4.00;;
70122;SDS011;57489;37.404;24.920;2023-03-23T15:02:42;17.47;;;4.03;;
70122;SDS011;57489;37.404;24.920;2023-03-23T15:07:47;10.63;;;3.85;;
70122;SDS011;57489;37.404;24.920;2023-03-23T15:12:51;8.50;;;4.40;;
70122;SDS011;57489;37.404;24.920;2023-03-23T15:17:52;12.13;;;4.07;;
70122;SDS011;57489;37.404;24.920;2023-03-23T15:22:53;12.68;;;4.68;;
70122;SDS011;57489;37.404;24.920;2023-03-23T15:27:58;17.07;;;3.57;;
70122;SDS011;57489;37.404;24.920;2023-03-23T15:33:14;13.65;;;3.53;;
70122;SDS011;57489;37.404;24.920;2023-03-23T15:38:19;12.33;;;3.70;;
70122;SDS011;57489;37.404;24.920;2023-03-23T15:43:23;12.50;;;3.97;;
70122;SDS011;57489;37.404;24.920;2023-03-23T15:48:26;11.38;;;3.50;;
70122;SDS011;57489;37.404;24.920;2023-03-23T15:53:28;10.90;;;3.27;;
70122;SDS011;57489;37.404;24.920;2023-03-23T15:58:33;9.82;;;3.40;;
70122;SDS011;57489;37.404;24.920;2023-03-23T16:03:44;13.65;;;4.32;;
70122;SDS011;57489;37.404;24.920;2023-03-23T16:08:53;10.47;;;3.53;;
70122;SDS011;57489;37.404;24.920;2023-03-23T16:13:54;12.93;;;2.80;;
70122;SDS011;57489;37.404;24.920;2023-03-23T16:18:55;7.53;;;3.20;;
70122;SDS011;57489;37.404;24.920;2023-03-23T16:23:55;8.53;;;3.20;;
70122;SDS011;57489;37.404;24.920;2023-03-23T16:28:57;10.80;;;3.08;;
70122;SDS011;57489;37.404;24.920;2023-03-23T16:33:57;7.57;;;3.10;;
70122;SDS011;57489;37.404;24.920;2023-03-23T16:38:58;8.33;;;3.43;;
70122;SDS011;57489;37.404;24.920;2023-03-23T16:43:58;16.87;;;4.83;;
70122;SDS011;57489;37.404;24.920;2023-03-23T16:48:58;18.10;;;3.97;;
70122;SDS011;57489;37.404;24.920;2023-03-23T16:53:59;13.63;;;4.30;;
70122;SDS011;57489;37.404;24.920;2023-03-23T16:58:59;13.90;;;4.03;;
70122;SDS011;57489;37.404;24.920;2023-03-23T17:04:00;11.87;;;3.93;;
70122;SDS011;57489;37.404;24.920;2023-03-23T17:09:00;14.57;;;4.07;;
70122;SDS011;57489;37.404;24.920;2023-03-23T17:14:00;16.20;;;5.97;;
70122;SDS011;57489;37.404;24.920;2023-03-23T17:19:01;13.73;;;4.50;;
70122;SDS011;57489;37.404;24.920;2023-03-23T17:24:02;15.43;;;4.93;;
70122;SDS011;57489;37.404;24.920;2023-03-23T17:29:02;12.50;;;3.70;;
70122;SDS011;57489;37.404;24.920;2023-03-23T17:34:03;14.50;;;4.17;;
70122;SDS011;57489;37.404;24.920;2023-03-23T17:39:03;15.60;;;4.13;;
70122;SDS011;57489;37.404;24.920;2023-03-23T17:44:04;13.50;;;3.97;;
70122;SDS011;57489;37.404;24.920;2023-03-23T17:49:04;8.27;;;3.60;;
70122;SDS011;57489;37.404;24.920;2023-03-23T17:54:05;10.97;;;3.10;;
70122;SDS011;57489;37.404;24.920;2023-03-23T17:59:05;8.57;;;3.13;;
70122;SDS011;57489;37.404;24.920;2023-03-23T18:04:06;12.87;;;3.30;;
70122;SDS011;57489;37.404;24.920;2023-03-23T18:09:07;8.47;;;3.37;;
70122;SDS011;57489;37.404;24.920;2023-03-23T18:14:07;17.67;;;4.80;;
70122;SDS011;57489;37.404;24.920;2023-03-23T18:19:08;14.77;;;5.07;;
70122;SDS011;57489;37.404;24.920;2023-03-23T18:24:09;13.60;;;4.28;;
70122;SDS011;57489;37.404;24.920;2023-03-23T18:29:10;21.70;;;4.87;;
70122;SDS011;57489;37.404;24.920;2023-03-23T18:34:10;18.40;;;4.47;;
70122;SDS011;57489;37.404;24.920;2023-03-23T18:39:11;16.03;;;4.70;;
70122;SDS011;57489;37.404;24.920;2023-03-23T18:44:11;24.53;;;5.27;;
70122;SDS011;57489;37.404;24.920;2023-03-23T18:49:12;14.93;;;4.40;;
70122;SDS011;57489;37.404;24.920;2023-03-23T18:54:12;15.07;;;4.30;;
70122;SDS011;57489;37.404;24.920;2023-03-23T18:59:12;12.17;;;4.30;;
70122;SDS011;57489;37.404;24.920;2023-03-23T19:04:13;19.37;;;4.67;;
70122;SDS011;57489;37.404;24.920;2023-03-23T19:09:14;14.40;;;4.27;;
70122;SDS011;57489;37.404;24.920;2023-03-23T19:14:15;15.27;;;4.57;;
70122;SDS011;57489;37.404;24.920;2023-03-23T19:19:15;18.20;;;3.97;;
70122;SDS011;57489;37.404;24.920;2023-03-23T19:24:17;16.20;;;3.63;;
70122;SDS011;57489;37.404;24.920;2023-03-23T19:29:18;8.30;;;3.43;;
70122;SDS011;57489;37.404;24.920;2023-03-23T19:34:18;14.38;;;3.85;;
70122;SDS011;57489;37.404;24.920;2023-03-23T19:39:19;17.90;;;4.00;;
70122;SDS011;57489;37.404;24.920;2023-03-23T19:44:20;15.90;;;3.53;;
70122;SDS011;57489;37.404;24.920;2023-03-23T19:49:20;10.37;;;3.83;;
70122;SDS011;57489;37.404;24.920;2023-03-23T19:54:21;15.52;;;3.60;;
70122;SDS011;57489;37.404;24.920;2023-03-23T19:59:21;17.73;;;3.23;;
70122;SDS011;57489;37.404;24.920;2023-03-23T20:04:22;10.90;;;3.83;;
70122;SDS011;57489;37.404;24.920;2023-03-23T20:09:22;14.93;;;3.93;;
70122;SDS011;57489;37.404;24.920;2023-03-23T20:14:22;10.33;;;3.13;;
70122;SDS011;57489;37.404;24.920;2023-03-23T20:19:23;12.43;;;3.50;;
70122;SDS011;57489;37.404;24.920;2023-03-23T20:24:23;11.57;;;3.63;;
70122;SDS011;57489;37.404;24.920;2023-03-23T20:29:24;12.20;;;3.63;;
70122;SDS011;57489;37.404;24.920;2023-03-23T20:34:24;9.80;;;3.53;;
70122;SDS011;57489;37.404;24.920;2023-03-23T20:39:25;12.03;;;3.50;;
70122;SDS011;57489;37.404;24.920;2023-03-23T20:44:27;12.40;;;3.42;;
70122;SDS011;57489;37.404;24.920;2023-03-23T20:49:28;9.60;;;3.70;;
70122;SDS011;57489;37.404;24.920;2023-03-23T20:54:29;9.47;;;3.43;;
70122;SDS011;57489;37.404;24.920;2023-03-23T20:59:29;11.60;;;3.50;;
70122;SDS011;57489;37.404;24.920;2023-03-23T21:04:30;9.00;;;2.93;;
70122;SDS011;57489;37.404;24.920;2023-03-23T21:09:30;11.03;;;3.27;;
70122;SDS011;57489;37.404;24.920;2023-03-23T21:14:32;10.63;;;3.73;;
70122;SDS011;57489;37.404;24.920;2023-03-23T21:19:33;8.13;;;3.33;;
70122;SDS011;57489;37.404;24.920;2023-03-23T21:24:34;7.50;;;3.00;;
70122;SDS011;57489;37.404;24.920;2023-03-23T21:29:34;8.23;;;3.38;;
70122;SDS011;57489;37.404;24.920;2023-03-23T21:34:35;8.90;;;3.17;;
70122;SDS011;57489;37.404;24.920;2023-03-23T21:39:36;8.10;;;2.97;;
70122;SDS011;57489;37.404;24.920;2023-03-23T21:44:37;13.20;;;3.53;;
70122;SDS011;57489;37.404;24.920;2023-03-23T21:49:37;10.33;;;3.67;;
70122;SDS011;57489;37.404;24.920;2023-03-23T21:54:38;10.40;;;3.43;;
70122;SDS011;57489;37.404;24.920;2023-03-23T21:59:38;8.90;;;3.50;;
70122;SDS011;57489;37.404;24.920;2023-03-23T22:04:39;9.10;;;3.00;;
70122;SDS011;57489;37.404;24.920;2023-03-23T22:09:40;9.40;;;3.42;;
70122;SDS011;57489;37.404;24.920;2023-03-23T22:14:41;8.80;;;3.30;;
70122;SDS011;57489;37.404;24.920;2023-03-23T22:19:41;9.38;;;3.97;;
70122;SDS011;57489;37.404;24.920;2023-03-23T22:24:42;9.60;;;3.17;;
70122;SDS011;57489;37.404;24.920;2023-03-23T22:29:42;8.20;;;3.30;;
70122;SDS011;57489;37.404;24.920;2023-03-23T22:34:43;8.07;;;3.30;;
70122;SDS011;57489;37.404;24.920;2023-03-23T22:39:43;9.87;;;3.53;;
70122;SDS011;57489;37.404;24.920;2023-03-23T22:44:44;8.13;;;3.00;;
70122;SDS011;57489;37.404;24.920;2023-03-23T22:49:44;7.57;;;2.67;;
70122;SDS011;57489;37.404;24.920;2023-03-23T22:54:45;7.63;;;2.90;;
70122;SDS011;57489;37.404;24.920;2023-03-23T22:59:48;8.30;;;2.93;;
70122;SDS011;57489;37.404;24.920;2023-03-23T23:04:49;11.00;;;3.22;;
70122;SDS011;57489;37.404;24.920;2023-03-23T23:09:49;8.57;;;2.73;;
70122;SDS011;57489;37.404;24.920;2023-03-23T23:14:50;7.07;;;3.33;;
70122;SDS011;57489;37.404;24.920;2023-03-23T23:19:50;6.53;;;2.97;;
70122;SDS011;57489;37.404;24.920;2023-03-23T23:24:51;6.43;;;3.27;;
70122;SDS011;57489;37.404;24.920;2023-03-23T23:29:51;8.05;;;3.00;;
70122;SDS011;57489;37.404;24.920;2023-03-23T23:34:52;7.70;;;2.97;;
70122;SDS011;57489;37.404;24.920;2023-03-23T23:39:52;5.67;;;2.60;;
70122;SDS011;57489;37.404;24.920;2023-03-23T23:44:53;9.07;;;3.30;;
70122;SDS011;57489;37.404;24.920;2023-03-23T23:49:54;6.10;;;2.90;;
70122;SDS011;57489;37.404;24.920;2023-03-23T23:54:54;7.00;;;2.50;;
70122;SDS011;57489;37.404;24.920;2023-03-23T23:59:54;7.57;;;2.63;;
